Rancho Cordova, CA (95670)

3:42 PM PDT on August 30, 2015 (GMT -0700)
AMPAC Fine Chemicals | | Change Station
CLOSE
Current Station
Personal Weather Station
Location: Rancho Cordova, CA
Elevation: 174 ft
Nearby Weather Stations

Elev 174 ft 38.61 °N, 121.22 °W | Updated 18 seconds ago

Clear
Clear
85.3 °F
Feels Like 83 °F
N
4.7
Wind Variable Wind from NNW
Gusts 8.3 mph

Today
High -- | Low -- °F
--% Chance of Precip.
Yesterday
High -- | Low -- °F
Precip. -- in
6:32 AM 7:38 PM
Full, 98% visible
Pressure 29.96 in
Visibility 10.0 miles
Clouds Clear
Heat Index 83 °F
Dew Point 44 °F
Humidity 24%
Rainfall 0.00 in
Snow Depth Not available.
UV 8 out of 12
Pollen 7.90 out of 12
Air Quality Not available.
Flu Activity Not available.
METAR KMHR 302145Z 35006KT 10SM SKC 29/08 A2996
Pressure 29.96 in
Visibility 10.0 miles
Clouds Clear
Heat Index 83 °F
Dew Point 44 °F
Humidity 24%
Rainfall 0.00 in
Snow Depth Not available.
UV 8 out of 12
Pollen 7.90 out of 12
Air Quality Not available.
Flu Activity Not available.
METAR KMHR 302145Z 35006KT 10SM SKC 29/08 A2996

10-Day Weather Forecast

×

Almanac

Astronomy

Aug. 30, 2015 Rise Set
Actual Time
Civil Twilight
Nautical Twilight
Astronomical Twilight
Moon
Length of Visible Light
Length of Day
Tomorrow will be .
, % of the Moon is Illuminated

Today's Extremes

State Highs State Lows

Community

WunderPhotos

Upload Photos

1,851,075 photos uploaded!

WunderBlogs® & News

Nearby

Air Quality

  Air Quality AQ Index Pollutant
Not available.

Snow Depth

Station Depth Elevation

Earthquake Activity

City Distance Mag. Time & Date
Minimum magnitude displayed is 2.5.

Coastal Water Temperatures

Place Temperature

Stations

Nearby Weather Stations

Station Location Temp. Windchill Dew Point Humidity Wind Precip. Elev Updated Type